createdAt,value
2018-12-19T00:00:40.514Z,8.60
2018-12-19T00:09:54.709Z,7.13
2018-12-19T00:12:39.053Z,7.73
2018-12-19T00:15:08.298Z,7.90
2018-12-19T00:17:36.679Z,5.93
2018-12-19T00:20:06.891Z,6.97
2018-12-19T00:22:35.245Z,10.20
2018-12-19T00:25:04.734Z,9.40
2018-12-19T00:27:33.163Z,10.43
2018-12-19T00:30:02.524Z,8.43
2018-12-19T00:34:00.462Z,9.10
2018-12-19T00:36:29.716Z,6.33
2018-12-19T00:38:59.196Z,8.03
2018-12-19T00:41:27.581Z,9.13
2018-12-19T00:43:57.560Z,6.43
2018-12-19T00:46:26.854Z,8.13
2018-12-19T00:48:56.773Z,7.50
2018-12-19T00:51:25.138Z,6.83
2018-12-19T00:53:53.490Z,10.63
2018-12-19T00:56:21.858Z,6.57
2018-12-19T00:58:50.236Z,6.60
2018-12-19T01:01:18.588Z,7.77
2018-12-19T01:03:46.940Z,6.97
2018-12-19T01:06:15.407Z,6.97
2018-12-19T01:15:30.480Z,8.07
2018-12-19T01:17:59.323Z,6.93
2018-12-19T01:20:28.278Z,11.73
2018-12-19T01:22:57.114Z,8.03
2018-12-19T01:25:26.182Z,10.00
2018-12-19T01:27:54.520Z,8.10
2018-12-19T01:30:22.870Z,7.50
2018-12-19T01:32:51.253Z,7.77
2018-12-19T01:35:19.584Z,7.40
2018-12-19T01:37:47.970Z,8.67
2018-12-19T01:40:17.152Z,8.00
2018-12-19T01:42:45.489Z,9.40
2018-12-19T01:45:13.861Z,7.07
2018-12-19T01:47:42.229Z,7.67
2018-12-19T01:50:10.613Z,7.10
2018-12-19T01:52:38.981Z,9.33
2018-12-19T01:55:07.756Z,9.80
2018-12-19T01:57:36.106Z,12.23
2018-12-19T02:00:05.267Z,6.47
2018-12-19T02:02:34.055Z,9.10
2018-12-19T02:05:03.762Z,6.83
2018-12-19T02:07:32.142Z,8.60
2018-12-19T02:10:00.533Z,10.50
2018-12-19T02:12:29.260Z,7.83
2018-12-19T02:14:58.214Z,8.00
2018-12-19T02:17:26.840Z,11.10
2018-12-19T02:19:55.194Z,10.07
2018-12-19T02:22:23.555Z,9.60
2018-12-19T02:24:51.938Z,9.30
2018-12-19T02:27:20.290Z,8.27
2018-12-19T02:29:48.662Z,8.47
2018-12-19T02:32:17.988Z,10.03
2018-12-19T02:34:46.323Z,9.00
2018-12-19T02:37:14.713Z,9.93
2018-12-19T02:39:43.151Z,10.40
2018-12-19T02:42:11.513Z,11.20
2018-12-19T02:44:41.087Z,8.83
2018-12-19T02:47:09.475Z,8.00
2018-12-19T02:49:38.604Z,8.43
2018-12-19T02:52:08.352Z,9.67
2018-12-19T02:54:37.001Z,13.23
2018-12-19T02:57:05.348Z,10.40
2018-12-19T02:59:33.783Z,14.60
2018-12-19T03:02:04.958Z,9.83
2018-12-19T03:04:34.098Z,10.53
2018-12-19T03:07:02.821Z,12.77
2018-12-19T03:09:32.346Z,14.17
2018-12-19T03:12:01.529Z,13.70
2018-12-19T03:14:30.658Z,12.00
2018-12-19T03:16:59.012Z,12.37
2018-12-19T03:19:27.406Z,14.33
2018-12-19T03:21:55.782Z,25.63
2018-12-19T03:24:24.152Z,22.80
2018-12-19T03:26:52.503Z,22.87
2018-12-19T03:29:20.857Z,25.93
2018-12-19T03:31:49.273Z,26.53
2018-12-19T03:34:18.288Z,24.07
2018-12-19T03:36:46.621Z,24.70
2018-12-19T03:39:14.978Z,19.97
2018-12-19T03:41:43.378Z,20.20
2018-12-19T03:44:11.731Z,22.50
2018-12-19T03:46:40.656Z,20.20
2018-12-19T03:49:09.019Z,17.70
2018-12-19T03:51:37.364Z,23.93
2018-12-19T03:54:05.687Z,20.20
2018-12-19T03:56:34.441Z,25.93
2018-12-19T03:59:03.470Z,28.93
2018-12-19T04:01:32.140Z,28.93
2018-12-19T04:04:00.531Z,32.50
2018-12-19T04:06:28.903Z,31.77
2018-12-19T04:08:58.347Z,30.63
2018-12-19T04:11:27.809Z,30.57
2018-12-19T04:13:56.411Z,28.10
2018-12-19T04:16:25.472Z,30.20
2018-12-19T04:18:53.876Z,32.30
2018-12-19T04:21:22.395Z,23.83
2018-12-19T04:23:50.775Z,23.67
2018-12-19T04:26:19.727Z,22.17
2018-12-19T04:28:48.100Z,24.90
2018-12-19T04:31:16.455Z,24.23
2018-12-19T04:33:44.819Z,28.60
2018-12-19T04:36:13.187Z,22.80
2018-12-19T04:38:41.819Z,28.03
2018-12-19T04:41:10.200Z,40.37
2018-12-19T04:43:38.686Z,37.73
2018-12-19T04:46:07.035Z,46.10
2018-12-19T04:48:35.394Z,36.60
2018-12-19T04:51:03.763Z,39.10
2018-12-19T04:53:32.114Z,39.60
2018-12-19T04:56:00.484Z,41.67
2018-12-19T04:58:29.159Z,42.37
2018-12-19T05:01:00.717Z,40.53
2018-12-19T05:03:29.053Z,43.17
2018-12-19T05:05:57.427Z,38.67
2018-12-19T05:08:26.150Z,38.20
2018-12-19T05:10:54.659Z,35.60
2018-12-19T05:13:23.028Z,31.97
2018-12-19T05:15:51.642Z,29.23
2018-12-19T05:18:20.042Z,29.37
2018-12-19T05:20:50.646Z,31.47
2018-12-19T05:23:19.046Z,40.57
2018-12-19T05:25:47.412Z,42.10
2018-12-19T05:28:15.780Z,42.37
2018-12-19T05:30:44.394Z,41.50
2018-12-19T05:33:12.762Z,42.33
2018-12-19T05:35:41.096Z,42.30
2018-12-19T05:38:09.479Z,47.10
2018-12-19T05:40:38.801Z,42.83
2018-12-19T05:43:07.167Z,46.80
2018-12-19T05:45:36.097Z,43.03
2018-12-19T05:48:04.456Z,36.90
2018-12-19T05:50:33.857Z,37.43
2018-12-19T05:53:04.018Z,37.23
2018-12-19T05:55:32.600Z,36.57
2018-12-19T05:58:01.612Z,35.00
2018-12-19T06:00:30.029Z,34.90
2018-12-19T06:03:03.592Z,38.27
2018-12-19T06:05:31.977Z,42.80
2018-12-19T06:08:01.935Z,39.20
2018-12-19T06:10:30.295Z,47.80
2018-12-19T06:13:00.937Z,39.90
2018-12-19T06:15:29.295Z,42.47
2018-12-19T06:17:59.270Z,38.17
2018-12-19T06:20:29.534Z,35.13
2018-12-19T06:22:59.712Z,30.63
2018-12-19T06:25:28.200Z,29.97
2018-12-19T06:27:58.701Z,31.23
2018-12-19T06:30:28.893Z,34.83
2018-12-19T06:32:57.711Z,29.23
2018-12-19T06:35:26.604Z,36.03
2018-12-19T06:37:56.567Z,37.37
2018-12-19T06:40:32.485Z,41.40
2018-12-19T06:42:57.764Z,41.83
2018-12-19T06:45:26.400Z,42.50
2018-12-19T06:47:54.786Z,48.43
2018-12-19T06:50:23.209Z,47.63
2018-12-19T06:52:53.879Z,46.10
2018-12-19T06:55:23.003Z,47.00
2018-12-19T06:57:51.380Z,47.67
2018-12-19T07:00:20.808Z,50.50
2018-12-19T07:02:51.430Z,46.87
2018-12-19T07:05:21.084Z,31.83
2018-12-19T07:07:50.329Z,37.93
2018-12-19T07:10:20.687Z,38.33
2018-12-19T07:12:52.717Z,36.30
2018-12-19T07:15:21.529Z,47.03
2018-12-19T07:17:51.982Z,48.47
2018-12-19T07:20:20.901Z,43.70
2018-12-19T07:22:49.509Z,49.03
2018-12-19T07:25:18.368Z,43.83
2018-12-19T07:29:16.271Z,43.97
2018-12-19T07:31:44.643Z,50.17
2018-12-19T07:34:13.139Z,52.67
2018-12-19T07:36:41.516Z,50.83
2018-12-19T07:39:10.263Z,51.80
2018-12-19T07:41:38.706Z,43.33
2018-12-19T07:44:07.066Z,38.23
2018-12-19T07:46:35.502Z,38.70
2018-12-19T07:49:06.376Z,41.63
2018-12-19T07:51:34.784Z,33.27
2018-12-19T07:54:04.123Z,47.87
2018-12-19T07:56:34.980Z,45.70
2018-12-19T07:59:04.920Z,50.23
2018-12-19T08:01:33.572Z,54.90
2018-12-19T08:04:03.322Z,52.87
2018-12-19T08:06:31.965Z,51.63
2018-12-19T08:09:01.751Z,45.23
2018-12-19T08:11:30.942Z,47.67
2018-12-19T08:13:59.646Z,46.63
2018-12-19T08:16:30.229Z,50.63
2018-12-19T08:18:58.645Z,39.47
2018-12-19T08:21:33.714Z,36.27
2018-12-19T08:24:03.923Z,38.30
2018-12-19T08:26:34.132Z,30.07
2018-12-19T08:29:05.033Z,36.47
2018-12-19T08:31:36.228Z,29.27
2018-12-19T08:34:06.009Z,39.83
2018-12-19T08:36:34.423Z,34.03
2018-12-19T08:39:04.773Z,30.50
2018-12-19T08:41:36.009Z,29.03
2018-12-19T08:44:05.782Z,29.37
2018-12-19T08:46:34.698Z,34.87
2018-12-19T08:49:04.850Z,26.63
2018-12-19T08:51:33.499Z,28.60
2018-12-19T08:54:03.296Z,31.77
2018-12-19T08:56:33.799Z,25.63
2018-12-19T08:59:07.078Z,30.73
2018-12-19T09:01:35.920Z,35.40
2018-12-19T09:04:05.892Z,29.50
2018-12-19T09:06:35.668Z,27.67
2018-12-19T09:09:10.351Z,29.50
2018-12-19T09:11:38.954Z,28.80
2018-12-19T09:14:08.832Z,27.63
2018-12-19T09:16:37.914Z,28.20
2018-12-19T09:19:06.314Z,19.43
2018-12-19T09:21:35.608Z,25.63
2018-12-19T09:24:06.121Z,28.00
2018-12-19T09:26:36.209Z,27.87
2018-12-19T09:29:05.247Z,24.77
2018-12-19T09:31:36.689Z,29.27
2018-12-19T09:34:12.278Z,19.40
2018-12-19T09:36:41.749Z,25.47
2018-12-19T09:39:11.493Z,20.60
2018-12-19T09:41:42.045Z,23.40
2018-12-19T09:44:13.106Z,19.70
2018-12-19T09:46:42.940Z,21.20
2018-12-19T09:49:14.126Z,22.40
2018-12-19T09:51:45.741Z,27.30
2018-12-19T09:54:14.506Z,17.60
2018-12-19T09:56:43.904Z,19.27
2018-12-19T09:59:12.828Z,23.50
2018-12-19T10:01:41.310Z,19.50
2018-12-19T10:04:10.908Z,19.87
2018-12-19T10:06:41.824Z,30.03
2018-12-19T10:09:14.981Z,16.70
2018-12-19T10:11:46.202Z,20.17
2018-12-19T10:14:15.999Z,19.50
2018-12-19T10:16:44.990Z,23.23
2018-12-19T10:19:14.692Z,23.37
2018-12-19T10:21:44.891Z,16.00
2018-12-19T10:24:17.657Z,21.50
2018-12-19T10:26:50.052Z,19.13
2018-12-19T10:29:19.671Z,19.27
2018-12-19T10:31:50.351Z,23.40
2018-12-19T10:34:19.432Z,20.47
2018-12-19T10:36:51.409Z,17.80
2018-12-19T10:39:20.715Z,13.97
2018-12-19T10:41:51.933Z,14.83
2018-12-19T10:45:51.675Z,22.57
2018-12-19T10:48:20.337Z,8.93
2018-12-19T10:50:52.633Z,12.43
2018-12-19T10:53:22.805Z,16.00
2018-12-19T10:55:54.099Z,17.67
2018-12-19T10:58:25.071Z,18.37
2018-12-19T11:01:01.164Z,18.10
2018-12-19T11:03:30.886Z,22.30
2018-12-19T11:06:02.604Z,23.13
2018-12-19T11:08:32.911Z,17.00
2018-12-19T11:11:03.209Z,16.17
2018-12-19T11:13:32.529Z,14.80
2018-12-19T11:16:04.211Z,20.27
2018-12-19T11:18:35.450Z,17.67
2018-12-19T11:23:40.428Z,16.23
2018-12-19T11:26:10.265Z,14.70
2018-12-19T11:28:41.464Z,15.57
2018-12-19T11:31:11.453Z,22.53
2018-12-19T11:33:41.012Z,7.43
2018-12-19T11:36:14.981Z,13.83
2018-12-19T11:38:47.171Z,18.53
2018-12-19T11:41:16.784Z,14.83
2018-12-19T11:43:49.516Z,20.10
2018-12-19T11:46:19.170Z,15.20
2018-12-19T11:48:48.037Z,17.53
2018-12-19T11:51:16.888Z,19.57
2018-12-19T11:53:45.836Z,15.30
2018-12-19T11:56:15.902Z,21.67
2018-12-19T11:58:45.275Z,25.17
2018-12-19T12:01:15.436Z,15.27
2018-12-19T12:03:44.639Z,18.07
2018-12-19T12:06:14.791Z,16.93
2018-12-19T12:08:43.938Z,16.03
2018-12-19T12:11:13.175Z,14.37
2018-12-19T12:13:45.081Z,16.57
2018-12-19T12:16:15.119Z,13.87
2018-12-19T12:18:44.419Z,19.83
2018-12-19T12:21:12.813Z,16.07
2018-12-19T12:23:47.267Z,16.20
2018-12-19T12:26:16.311Z,16.50
2018-12-19T12:28:45.649Z,21.17
2018-12-19T12:31:15.167Z,14.43
2018-12-19T12:33:44.213Z,13.13
2018-12-19T12:36:13.373Z,19.53
2018-12-19T12:38:48.147Z,18.80
2018-12-19T12:41:18.876Z,15.07
2018-12-19T12:43:49.134Z,18.47
2018-12-19T12:46:19.206Z,17.67
2018-12-19T12:48:49.136Z,21.53
2018-12-19T12:51:18.083Z,19.47
2018-12-19T12:53:50.775Z,16.63
2018-12-19T12:56:21.952Z,15.90
2018-12-19T12:58:52.439Z,16.83
2018-12-19T13:01:21.331Z,16.43
2018-12-19T13:03:53.334Z,13.83
2018-12-19T13:06:29.403Z,13.53
2018-12-19T13:08:59.044Z,12.63
2018-12-19T13:11:36.090Z,16.57
2018-12-19T13:14:07.934Z,14.37
2018-12-19T13:16:37.320Z,20.40
2018-12-19T13:19:09.322Z,19.03
2018-12-19T13:21:39.742Z,17.03
2018-12-19T13:24:09.412Z,12.87
2018-12-19T13:26:42.944Z,14.50
2018-12-19T13:29:12.230Z,9.37
2018-12-19T13:31:41.225Z,18.97
2018-12-19T13:34:13.822Z,14.17
2018-12-19T13:36:42.884Z,12.30
2018-12-19T13:39:13.071Z,10.03
2018-12-19T13:41:48.173Z,9.67
2018-12-19T13:44:19.063Z,10.97
2018-12-19T13:46:50.107Z,17.13
2018-12-19T13:49:22.355Z,15.93
2018-12-19T13:51:55.350Z,13.73
2018-12-19T13:54:26.038Z,10.33
2018-12-19T13:56:57.421Z,19.37
2018-12-19T13:59:26.966Z,10.87
2018-12-19T14:01:58.195Z,11.33
2018-12-19T14:04:28.097Z,14.47
2018-12-19T14:06:58.452Z,12.63
2018-12-19T14:09:28.195Z,8.07
2018-12-19T14:11:57.703Z,11.27
2018-12-19T14:14:26.099Z,12.60
2018-12-19T14:16:55.779Z,18.73
2018-12-19T14:19:28.645Z,10.40
2018-12-19T14:21:57.245Z,12.00
2018-12-19T14:24:27.070Z,13.13
2018-12-19T14:26:57.776Z,15.27
2018-12-19T14:29:26.839Z,13.80
2018-12-19T14:31:57.271Z,10.70
2018-12-19T14:34:26.332Z,15.00
2018-12-19T14:36:58.230Z,15.37
2018-12-19T14:39:28.960Z,14.80
2018-12-19T14:41:59.960Z,14.47
2018-12-19T14:44:30.088Z,11.43
2018-12-19T14:46:58.492Z,11.40
2018-12-19T14:49:27.549Z,14.97
2018-12-19T14:51:58.579Z,14.40
2018-12-19T14:54:28.746Z,12.97
2018-12-19T14:56:58.865Z,16.37
2018-12-19T14:59:32.916Z,15.80
2018-12-19T15:02:02.048Z,15.43
2018-12-19T15:04:31.240Z,15.80
2018-12-19T15:07:00.942Z,18.27
2018-12-19T15:09:29.697Z,12.03
2018-12-19T15:11:58.445Z,12.30
2018-12-19T15:14:28.909Z,11.93
2018-12-19T15:16:59.369Z,13.13
2018-12-19T15:19:29.214Z,11.57
2018-12-19T15:21:58.125Z,11.20
2018-12-19T15:24:26.845Z,16.73
2018-12-19T15:26:55.921Z,11.27
2018-12-19T15:29:25.123Z,10.47
2018-12-19T15:31:53.780Z,12.63
2018-12-19T15:34:24.192Z,9.70
2018-12-19T15:36:53.019Z,12.40
2018-12-19T15:39:22.673Z,13.60
2018-12-19T15:41:52.308Z,19.47
2018-12-19T15:44:21.344Z,11.57
2018-12-19T15:46:51.880Z,10.47
2018-12-19T15:49:20.228Z,12.07
2018-12-19T15:51:49.170Z,13.57
2018-12-19T15:54:17.956Z,15.90
2018-12-19T15:56:46.363Z,14.67
2018-12-19T15:59:15.372Z,12.03
2018-12-19T16:01:44.820Z,11.77
2018-12-19T16:04:13.767Z,8.83
2018-12-19T16:06:43.589Z,15.10
2018-12-19T16:09:12.462Z,19.93
2018-12-19T16:11:42.216Z,14.07
2018-12-19T16:14:10.640Z,19.30
2018-12-19T16:16:38.992Z,23.30
2018-12-19T16:19:07.349Z,16.50
2018-12-19T16:21:35.693Z,17.57
2018-12-19T16:24:05.692Z,17.20
2018-12-19T16:26:34.116Z,17.40
2018-12-19T16:29:03.567Z,11.87
2018-12-19T16:31:31.953Z,11.23
2018-12-19T16:34:01.403Z,17.47
2018-12-19T16:36:30.069Z,19.77
2018-12-19T16:38:58.430Z,16.30
2018-12-19T16:41:28.388Z,15.43
2018-12-19T16:43:57.511Z,14.10
2018-12-19T16:46:26.604Z,15.40
2018-12-19T16:48:55.854Z,18.53
2018-12-19T16:51:25.295Z,13.10
2018-12-19T16:53:55.130Z,13.07
2018-12-19T16:56:23.762Z,12.20
2018-12-19T16:58:52.133Z,11.00
2018-12-19T17:01:21.816Z,14.17
2018-12-19T17:03:50.274Z,13.20
2018-12-19T17:06:18.659Z,13.57
2018-12-19T17:08:48.830Z,13.57
2018-12-19T17:11:18.650Z,18.57
2018-12-19T17:13:47.732Z,13.67
2018-12-19T17:16:16.217Z,15.23
2018-12-19T17:18:44.640Z,14.90
2018-12-19T17:21:13.282Z,9.83
2018-12-19T17:23:41.711Z,12.90
2018-12-19T17:26:12.233Z,14.83
2018-12-19T17:28:41.062Z,8.43
2018-12-19T17:31:09.960Z,11.00
2018-12-19T17:33:38.859Z,14.23
2018-12-19T17:36:07.754Z,18.37
2018-12-19T17:38:36.213Z,14.40
2018-12-19T17:41:05.721Z,16.43
2018-12-19T17:43:36.269Z,17.37
2018-12-19T17:46:04.818Z,14.27
2018-12-19T17:48:33.858Z,14.67
2018-12-19T17:51:03.247Z,13.97
2018-12-19T17:53:32.619Z,11.77
2018-12-19T17:56:01.011Z,9.13
2018-12-19T17:58:31.133Z,8.40
2018-12-19T18:00:59.701Z,12.37
2018-12-19T18:03:28.486Z,13.13
2018-12-19T18:05:56.938Z,13.27
2018-12-19T18:08:29.307Z,12.30
2018-12-19T18:10:59.365Z,10.63
2018-12-19T18:13:32.449Z,11.33
2018-12-19T18:16:04.149Z,14.53
2018-12-19T18:18:34.853Z,13.83
2018-12-19T18:21:04.197Z,13.43
2018-12-19T18:23:32.774Z,13.87
2018-12-19T18:26:01.629Z,14.50
2018-12-19T18:28:31.000Z,16.07
2018-12-19T18:30:59.798Z,36.60
2018-12-19T18:33:30.440Z,19.73
2018-12-19T18:36:04.845Z,24.97
2018-12-19T18:38:34.015Z,12.80
2018-12-19T18:41:03.191Z,10.53
2018-12-19T18:43:32.941Z,11.43
2018-12-19T18:46:02.739Z,10.60
2018-12-19T18:48:32.372Z,6.43
2018-12-19T18:51:02.935Z,11.50
2018-12-19T18:53:32.232Z,11.70
2018-12-19T18:56:01.882Z,13.13
2018-12-19T18:58:30.747Z,11.23
2018-12-19T19:00:59.329Z,11.63
2018-12-19T19:03:28.673Z,10.57
2018-12-19T19:05:57.346Z,14.37
2018-12-19T19:08:27.530Z,14.23
2018-12-19T19:10:56.143Z,11.70
2018-12-19T19:13:25.325Z,12.67
2018-12-19T19:15:54.018Z,10.90
2018-12-19T19:18:24.271Z,15.17
2018-12-19T19:20:54.093Z,12.47
2018-12-19T19:23:22.676Z,12.27
2018-12-19T19:25:51.253Z,18.77
2018-12-19T19:28:21.104Z,12.17
2018-12-19T19:30:50.505Z,13.97
2018-12-19T19:33:20.119Z,17.80
2018-12-19T19:35:49.648Z,20.07
2018-12-19T19:38:19.165Z,13.37
2018-12-19T19:40:47.734Z,16.60
2018-12-19T19:43:19.022Z,12.17
2018-12-19T19:45:49.088Z,12.57
2018-12-19T19:48:17.938Z,9.93
2018-12-19T19:52:15.672Z,19.80
2018-12-19T19:54:44.218Z,16.03
2018-12-19T19:57:14.338Z,16.40
2018-12-19T19:59:52.183Z,19.37
2018-12-19T20:02:22.243Z,27.17
2018-12-19T20:04:52.659Z,22.97
2018-12-19T20:07:23.151Z,16.53
2018-12-19T20:09:52.000Z,17.03
2018-12-19T20:12:22.200Z,23.43
2018-12-19T20:14:54.780Z,17.43
2018-12-19T20:17:32.968Z,19.27
2018-12-19T20:20:02.209Z,20.67
2018-12-19T20:22:31.070Z,20.13
2018-12-19T20:25:01.047Z,24.83
2018-12-19T20:27:30.596Z,22.53
2018-12-19T20:30:03.639Z,22.53
2018-12-19T20:32:32.803Z,22.03
2018-12-19T20:35:03.837Z,25.17
2018-12-19T20:37:39.888Z,19.00
2018-12-19T20:40:10.431Z,18.40
2018-12-19T20:42:39.074Z,19.47
2018-12-19T20:45:10.533Z,25.33
2018-12-19T20:47:40.139Z,25.90
2018-12-19T20:50:13.171Z,25.47
2018-12-19T20:52:41.690Z,25.23
2018-12-19T20:55:10.225Z,23.73
2018-12-19T20:57:39.648Z,27.60
2018-12-19T21:00:09.698Z,30.13
2018-12-19T21:02:38.854Z,17.63
2018-12-19T21:05:08.746Z,18.97
2018-12-19T21:07:37.396Z,19.87
2018-12-19T21:10:07.468Z,26.13
2018-12-19T21:12:36.048Z,28.90
2018-12-19T21:15:05.850Z,24.63
2018-12-19T21:17:39.606Z,28.40
2018-12-19T21:20:10.332Z,30.97
2018-12-19T21:22:40.127Z,29.23
2018-12-19T21:25:10.295Z,22.57
2018-12-19T21:27:39.734Z,24.07
2018-12-19T21:30:10.599Z,26.20
2018-12-19T21:32:39.394Z,24.30
2018-12-19T21:35:09.328Z,29.57
2018-12-19T21:37:38.265Z,33.07
2018-12-19T21:40:08.354Z,27.20
2018-12-19T21:44:07.421Z,33.87
2018-12-19T21:46:40.764Z,43.03
2018-12-19T21:49:12.641Z,36.23
2018-12-19T21:51:43.086Z,23.93
2018-12-19T21:54:13.389Z,25.30
2018-12-19T21:56:42.970Z,24.27
2018-12-19T21:59:12.889Z,24.00
2018-12-19T22:01:41.357Z,30.70
2018-12-19T22:04:10.488Z,29.07
2018-12-19T22:06:40.754Z,31.97
2018-12-19T22:09:10.692Z,27.70
2018-12-19T22:11:46.375Z,31.13
2018-12-19T22:14:15.005Z,31.27
2018-12-19T22:16:54.893Z,30.93
2018-12-19T22:19:25.749Z,28.87
2018-12-19T22:21:54.745Z,34.23
2018-12-19T22:24:27.437Z,28.80
2018-12-19T22:26:56.411Z,32.10
2018-12-19T22:29:32.848Z,37.20
2018-12-19T22:32:02.647Z,33.10
2018-12-19T22:34:35.526Z,35.47
2018-12-19T22:37:09.366Z,33.03
2018-12-19T22:39:38.499Z,34.50
2018-12-19T22:42:08.529Z,31.13
2018-12-19T22:44:41.010Z,37.30
2018-12-19T22:47:10.863Z,30.20
2018-12-19T22:49:44.353Z,32.27
2018-12-19T22:52:13.235Z,29.57
2018-12-19T22:54:41.700Z,33.03
2018-12-19T22:57:11.114Z,25.43
2018-12-19T22:59:40.407Z,42.73
2018-12-19T23:02:15.943Z,35.30
2018-12-19T23:04:44.708Z,36.80
2018-12-19T23:07:13.530Z,39.80
2018-12-19T23:09:43.196Z,45.80
2018-12-19T23:12:12.224Z,39.73
2018-12-19T23:14:41.992Z,38.77
2018-12-19T23:17:15.870Z,30.67
2018-12-19T23:19:44.925Z,33.10
2018-12-19T23:22:14.439Z,31.30
2018-12-19T23:24:43.838Z,31.93
2018-12-19T23:27:12.869Z,46.13
2018-12-19T23:29:41.793Z,46.77
2018-12-19T23:32:10.321Z,44.47
2018-12-19T23:34:39.251Z,41.27
2018-12-19T23:37:07.595Z,49.90
2018-12-19T23:39:36.526Z,50.13
2018-12-19T23:42:06.417Z,43.80
2018-12-19T23:44:37.507Z,46.47
2018-12-19T23:47:07.035Z,45.50
2018-12-19T23:49:35.707Z,39.20
2018-12-19T23:52:04.618Z,40.83
2018-12-19T23:54:33.765Z,40.37
2018-12-19T23:57:02.537Z,51.73
2018-12-19T23:59:33.659Z,45.13
